Time;durP1;ratioP1;P1;durP2;ratioP2;P2;SDS_P1;SDS_P2;PMS_P1;PMS_P2;Temp;Humidity;BMP_temperature;BMP_pressure;BME280_temperature;BME280_humidity;BME280_pressure;Samples;Min_cycle;Max_cycle;Signal;HPM_P1;HPM_P2
2021/11/13 00:00:58;;;;;;;20.50;8.52;;;;;;;;;;5077742;28;20028;-57
2021/11/13 00:03:24;;;;;;;20.33;9.55;;;;;;;;;;5080158;28;20040;-54
2021/11/13 00:05:51;;;;;;;22.50;8.70;;;;;;;;;;5076821;28;20036;-57
2021/11/13 00:08:19;;;;;;;19.05;8.05;;;;;;;;;;5052747;28;20046;-56
2021/11/13 00:10:47;;;;;;;25.43;8.90;;;;;;;;;;5060925;28;20036;-56
2021/11/13 00:13:14;;;;;;;17.25;8.07;;;;;;;;;;5074420;28;20293;-57
2021/11/13 00:15:41;;;;;;;19.95;8.48;;;;;;;;;;5081702;28;20082;-58
2021/11/13 00:18:09;;;;;;;23.85;9.00;;;;;;;;;;5075932;28;20069;-56
2021/11/13 00:20:36;;;;;;;19.25;9.18;;;;;;;;;;5077587;28;20037;-56
2021/11/13 00:23:03;;;;;;;19.30;7.45;;;;;;;;;;5063338;28;20041;-58
2021/11/13 00:25:31;;;;;;;18.73;9.10;;;;;;;;;;5061475;28;20032;-55
2021/11/13 00:27:58;;;;;;;21.42;9.02;;;;;;;;;;5069183;28;20056;-53
2021/11/13 00:30:27;;;;;;;20.38;8.77;;;;;;;;;;5080397;28;20151;-57
2021/11/13 00:32:53;;;;;;;24.50;9.30;;;;;;;;;;5075120;28;20065;-55
2021/11/13 00:35:20;;;;;;;24.15;9.50;;;;;;;;;;5061753;28;20040;-56
2021/11/13 00:37:47;;;;;;;21.95;8.88;;;;;;;;;;5067103;28;20037;-58
2021/11/13 00:40:15;;;;;;;25.45;9.60;;;;;;;;;;5083021;28;20076;-56
2021/11/13 00:42:43;;;;;;;18.77;8.35;;;;;;;;;;5072888;28;20456;-56
2021/11/13 00:45:10;;;;;;;17.92;8.18;;;;;;;;;;5063660;28;20040;-56
2021/11/13 00:47:37;;;;;;;20.67;9.07;;;;;;;;;;5062259;28;20653;-58
2021/11/13 00:50:06;;;;;;;26.65;9.93;;;;;;;;;;5084292;28;20032;-56
2021/11/13 00:52:33;;;;;;;21.73;8.90;;;;;;;;;;5061712;28;20032;-57
2021/11/13 00:55:00;;;;;;;24.00;9.52;;;;;;;;;;5064082;28;20048;-56
2021/11/13 00:57:26;;;;;;;21.27;8.63;;;;;;;;;;5085663;28;20047;-57
2021/11/13 00:59:54;;;;;;;22.20;8.57;;;;;;;;;;5063105;28;20110;-57
2021/11/13 01:02:21;;;;;;;21.13;8.73;;;;;;;;;;5064236;28;20020;-58
2021/11/13 01:04:47;;;;;;;22.05;10.15;;;;;;;;;;5060992;28;20037;-57
2021/11/13 01:07:14;;;;;;;19.95;8.60;;;;;;;;;;5064196;28;20506;-58
2021/11/13 01:09:41;;;;;;;20.10;8.52;;;;;;;;;;5063701;28;20041;-58
2021/11/13 01:12:08;;;;;;;19.83;8.02;;;;;;;;;;5073817;28;20036;-57
2021/11/13 01:14:40;;;;;;;24.20;9.68;;;;;;;;;;5069003;28;20126;-58
2021/11/13 01:17:10;;;;;;;19.98;8.60;;;;;;;;;;5064934;28;20052;-55
2021/11/13 01:19:37;;;;;;;19.33;8.23;;;;;;;;;;5061359;28;20037;-58
2021/11/13 01:22:05;;;;;;;17.90;8.57;;;;;;;;;;5063237;28;20040;-55
2021/11/13 01:24:32;;;;;;;21.15;9.18;;;;;;;;;;5060476;28;20471;-58
2021/11/13 01:26:58;;;;;;;18.73;8.63;;;;;;;;;;5080670;28;20077;-58
2021/11/13 01:29:25;;;;;;;24.80;8.98;;;;;;;;;;5075983;28;20147;-58
2021/11/13 01:31:51;;;;;;;19.77;8.40;;;;;;;;;;5064365;28;20060;-58
2021/11/13 01:34:19;;;;;;;18.80;7.55;;;;;;;;;;5065573;28;20056;-58
2021/11/13 01:36:46;;;;;;;20.67;7.47;;;;;;;;;;5083680;28;20037;-56
2021/11/13 01:39:12;;;;;;;16.83;7.35;;;;;;;;;;5082801;28;20354;-55
2021/11/13 01:41:39;;;;;;;20.90;8.23;;;;;;;;;;5060058;28;20080;-56
2021/11/13 01:44:06;;;;;;;16.60;7.65;;;;;;;;;;5061861;28;20052;-57
2021/11/13 01:46:33;;;;;;;20.55;8.40;;;;;;;;;;5058768;28;20055;-59
2021/11/13 01:48:59;;;;;;;18.52;8.38;;;;;;;;;;5062786;28;20048;-57
2021/11/13 01:51:29;;;;;;;17.98;7.88;;;;;;;;;;5060104;28;20150;-59
2021/11/13 01:53:56;;;;;;;17.63;7.43;;;;;;;;;;5061552;28;20036;-55
2021/11/13 01:56:24;;;;;;;17.70;8.10;;;;;;;;;;5059310;28;20040;-58
2021/11/13 01:58:53;;;;;;;18.25;8.05;;;;;;;;;;5063983;28;20029;-55
2021/11/13 02:01:20;;;;;;;17.00;7.70;;;;;;;;;;5067730;28;20036;-59
2021/11/13 02:03:47;;;;;;;19.15;8.02;;;;;;;;;;5083752;28;20121;-59
2021/11/13 02:06:15;;;;;;;13.50;6.65;;;;;;;;;;5072528;28;20547;-58
2021/11/13 02:08:42;;;;;;;18.73;7.85;;;;;;;;;;5062881;28;20171;-59
2021/11/13 02:11:14;;;;;;;17.43;7.40;;;;;;;;;;5061063;28;20029;-58
2021/11/13 02:13:40;;;;;;;17.98;7.63;;;;;;;;;;5059166;28;20102;-55
2021/11/13 02:16:09;;;;;;;16.27;7.55;;;;;;;;;;5058810;28;20068;-59
2021/11/13 02:18:36;;;;;;;16.85;7.45;;;;;;;;;;5061415;28;20033;-59
2021/11/13 02:21:05;;;;;;;16.48;7.70;;;;;;;;;;5058509;28;20037;-58
2021/11/13 02:23:32;;;;;;;16.80;7.47;;;;;;;;;;5081380;28;20113;-57
2021/11/13 02:25:58;;;;;;;20.05;7.40;;;;;;;;;;5083391;28;20043;-57
2021/11/13 02:28:26;;;;;;;20.98;7.20;;;;;;;;;;5061082;28;20029;-58
2021/11/13 02:30:54;;;;;;;15.30;7.00;;;;;;;;;;5061976;28;20036;-57
2021/11/13 02:33:21;;;;;;;16.08;6.85;;;;;;;;;;5068178;28;20375;-57
2021/11/13 02:35:48;;;;;;;16.05;7.63;;;;;;;;;;5064500;28;20037;-57
2021/11/13 02:38:17;;;;;;;19.63;7.53;;;;;;;;;;5061825;28;20132;-56
2021/11/13 02:40:45;;;;;;;14.95;7.07;;;;;;;;;;5063664;28;20052;-59
2021/11/13 02:43:12;;;;;;;;;;;;;;;;;;5059155;28;20041;-57
2021/11/13 02:45:39;;;;;;;13.95;5.65;;;;;;;;;;5062452;28;19933;-57
2021/11/13 02:48:06;;;;;;;16.35;6.80;;;;;;;;;;5068402;28;20040;-59
2021/11/13 02:50:33;;;;;;;19.88;8.05;;;;;;;;;;5081915;28;20162;-58
2021/11/13 02:53:01;;;;;;;15.95;7.00;;;;;;;;;;5078287;28;20214;-59
2021/11/13 02:55:30;;;;;;;15.98;8.30;;;;;;;;;;5082439;28;20105;-57
2021/11/13 02:57:56;;;;;;;;;;;;;;;;;;5074343;28;20073;-58
2021/11/13 03:00:26;;;;;;;15.18;7.18;;;;;;;;;;5060274;28;19920;-57
2021/11/13 03:02:53;;;;;;;17.15;7.10;;;;;;;;;;5053296;28;20064;-58
2021/11/13 03:05:20;;;;;;;21.27;7.88;;;;;;;;;;5036900;28;20155;-59
2021/11/13 03:07:47;;;;;;;15.02;7.03;;;;;;;;;;5038963;28;20178;-55
2021/11/13 03:10:16;;;;;;;13.88;7.13;;;;;;;;;;5040498;28;20041;-57
2021/11/13 03:12:45;;;;;;;16.55;6.95;;;;;;;;;;5041148;28;20045;-57
2021/11/13 03:15:12;;;;;;;16.75;6.90;;;;;;;;;;5041954;28;20117;-58
2021/11/13 03:17:39;;;;;;;13.50;6.55;;;;;;;;;;5042704;28;20041;-57
2021/11/13 03:20:07;;;;;;;14.63;6.93;;;;;;;;;;5053796;28;20510;-58
2021/11/13 03:22:34;;;;;;;14.02;6.80;;;;;;;;;;5063276;28;20029;-58
2021/11/13 03:25:00;;;;;;;15.82;7.28;;;;;;;;;;5043881;28;20126;-58
2021/11/13 03:27:28;;;;;;;11.95;6.28;;;;;;;;;;5042456;28;20017;-59
2021/11/13 03:29:58;;;;;;;17.27;7.80;;;;;;;;;;5047794;28;20118;-58
2021/11/13 03:32:25;;;;;;;19.83;7.57;;;;;;;;;;5063183;28;20037;-57
2021/11/13 03:34:52;;;;;;;15.02;7.18;;;;;;;;;;5047682;28;20048;-58
2021/11/13 03:37:18;;;;;;;15.93;7.65;;;;;;;;;;5061001;28;20051;-57
2021/11/13 03:39:45;;;;;;;18.08;7.30;;;;;;;;;;5054254;28;20045;-58
2021/11/13 03:42:12;;;;;;;19.05;8.18;;;;;;;;;;5040928;28;20034;-57
2021/11/13 03:44:38;;;;;;;16.10;7.57;;;;;;;;;;5038539;28;20438;-58
2021/11/13 03:47:06;;;;;;;15.48;7.47;;;;;;;;;;5040126;28;20053;-58
2021/11/13 03:49:33;;;;;;;16.03;7.63;;;;;;;;;;5040381;28;20041;-58
2021/11/13 03:52:00;;;;;;;18.27;8.82;;;;;;;;;;5049024;28;20282;-57
2021/11/13 03:54:27;;;;;;;14.57;6.20;;;;;;;;;;5041387;28;20052;-58
2021/11/13 03:56:54;;;;;;;16.77;7.88;;;;;;;;;;5056836;28;20048;-57
2021/11/13 03:59:23;;;;;;;17.98;7.75;;;;;;;;;;5046920;28;20146;-55
2021/11/13 04:01:50;;;;;;;15.45;7.00;;;;;;;;;;5038018;28;20516;-58
2021/11/13 04:04:17;;;;;;;16.85;7.72;;;;;;;;;;5042752;28;20087;-57
2021/11/13 04:06:44;;;;;;;18.92;8.38;;;;;;;;;;5056189;28;20035;-57
2021/11/13 04:09:10;;;;;;;19.17;6.88;;;;;;;;;;5061769;28;20040;-58
2021/11/13 04:11:43;;;;;;;17.95;7.68;;;;;;;;;;5054960;28;20044;-58
2021/11/13 04:14:10;;;;;;;17.13;7.60;;;;;;;;;;5039401;28;20323;-59
2021/11/13 04:16:36;;;;;;;18.17;7.13;;;;;;;;;;5047911;28;20481;-57
2021/11/13 04:19:09;;;;;;;16.15;7.43;;;;;;;;;;5061150;28;20048;-55
2021/11/13 04:21:38;;;;;;;19.27;7.47;;;;;;;;;;5057628;28;20114;-56
2021/11/13 04:24:04;;;;;;;;;;;;;;;;;;5061161;28;20045;-55
2021/11/13 04:26:31;;;;;;;16.15;6.55;;;;;;;;;;5055415;28;19995;-57
2021/11/13 04:28:57;;;;;;;15.00;6.50;;;;;;;;;;5058230;28;20114;-58
2021/11/13 04:31:24;;;;;;;15.48;6.70;;;;;;;;;;5056301;28;20056;-55
2021/11/13 04:33:56;;;;;;;14.00;7.20;;;;;;;;;;5061141;28;20045;-58
2021/11/13 04:36:24;;;;;;;17.08;6.90;;;;;;;;;;5056671;28;20090;-60
2021/11/13 04:38:52;;;;;;;19.35;6.22;;;;;;;;;;5060595;28;20047;-59
2021/11/13 04:41:19;;;;;;;13.73;6.67;;;;;;;;;;5060640;28;20069;-59
2021/11/13 04:43:46;;;;;;;17.85;6.97;;;;;;;;;;5037524;28;20282;-60
2021/11/13 04:46:12;;;;;;;15.32;7.45;;;;;;;;;;5040841;28;20053;-59
2021/11/13 04:48:39;;;;;;;17.58;7.15;;;;;;;;;;5038548;28;20045;-60
2021/11/13 04:51:05;;;;;;;15.20;7.05;;;;;;;;;;5040136;28;20044;-59
2021/11/13 04:53:32;;;;;;;14.75;6.68;;;;;;;;;;5036958;28;20512;-59
2021/11/13 04:56:00;;;;;;;15.15;6.63;;;;;;;;;;5045974;28;20159;-59
2021/11/13 04:58:26;;;;;;;15.37;7.43;;;;;;;;;;5056976;28;20057;-59
2021/11/13 05:00:53;;;;;;;22.60;7.57;;;;;;;;;;5051356;28;20277;-60
2021/11/13 05:03:20;;;;;;;17.30;7.72;;;;;;;;;;5045821;28;20037;-60
2021/11/13 05:05:46;;;;;;;14.40;6.43;;;;;;;;;;5061089;28;20044;-60
2021/11/13 05:08:12;;;;;;;14.98;6.55;;;;;;;;;;5050334;28;20037;-60
2021/11/13 05:10:39;;;;;;;15.13;5.82;;;;;;;;;;5040170;28;20034;-59
2021/11/13 05:13:07;;;;;;;15.20;7.05;;;;;;;;;;5037229;28;20048;-59
2021/11/13 05:15:34;;;;;;;12.57;6.20;;;;;;;;;;5041938;28;20041;-59
2021/11/13 05:18:00;;;;;;;15.77;6.07;;;;;;;;;;5039144;28;20061;-60
2021/11/13 05:20:27;;;;;;;10.95;5.97;;;;;;;;;;5039355;28;20049;-59
2021/11/13 05:22:54;;;;;;;16.40;6.57;;;;;;;;;;5059696;28;20040;-59
2021/11/13 05:25:21;;;;;;;13.18;6.22;;;;;;;;;;5056556;28;20045;-59
2021/11/13 05:27:48;;;;;;;13.25;6.70;;;;;;;;;;5059780;28;20061;-60
2021/11/13 05:30:18;;;;;;;14.77;6.78;;;;;;;;;;5059031;28;20053;-59
2021/11/13 05:32:44;;;;;;;11.77;5.50;;;;;;;;;;5065059;28;20126;-60
2021/11/13 05:35:11;;;;;;;12.63;5.90;;;;;;;;;;5063019;28;20037;-60
2021/11/13 05:37:38;;;;;;;13.68;5.78;;;;;;;;;;5056063;28;20041;-58
2021/11/13 05:40:07;;;;;;;12.63;6.18;;;;;;;;;;5040624;28;20055;-60
2021/11/13 05:42:34;;;;;;;;;;;;;;;;;;5043759;28;20103;-59
2021/11/13 05:45:01;;;;;;;14.48;4.93;;;;;;;;;;5039403;28;19939;-60
2021/11/13 05:47:29;;;;;;;12.55;5.95;;;;;;;;;;5052541;28;20443;-59
2021/11/13 05:49:56;;;;;;;17.38;5.57;;;;;;;;;;5058544;28;20040;-59
2021/11/13 05:52:23;;;;;;;12.45;5.05;;;;;;;;;;5070007;28;20045;-59
2021/11/13 05:54:49;;;;;;;15.52;6.07;;;;;;;;;;5061503;28;20037;-59
2021/11/13 05:57:15;;;;;;;10.75;5.55;;;;;;;;;;5052332;28;20057;-59
2021/11/13 05:59:42;;;;;;;14.98;5.82;;;;;;;;;;5042421;28;20037;-59
2021/11/13 06:02:09;;;;;;;13.80;6.63;;;;;;;;;;5050806;28;20056;-59
2021/11/13 06:04:37;;;;;;;12.88;6.20;;;;;;;;;;5042472;28;20661;-59
2021/11/13 06:07:03;;;;;;;12.07;6.05;;;;;;;;;;5041262;28;20077;-60
2021/11/13 06:09:30;;;;;;;11.68;6.05;;;;;;;;;;5051195;28;20049;-59
2021/11/13 06:11:57;;;;;;;16.75;6.57;;;;;;;;;;5047823;28;20049;-59
2021/11/13 06:14:26;;;;;;;11.77;5.70;;;;;;;;;;5063176;28;20040;-59
2021/11/13 06:16:52;;;;;;;;;;;;;;;;;;5059574;28;20122;-59
2021/11/13 06:19:19;;;;;;;10.98;5.63;;;;;;;;;;5062314;28;19930;-60
2021/11/13 06:21:48;;;;;;;11.75;5.85;;;;;;;;;;5070861;28;20052;-59
2021/11/13 06:24:15;;;;;;;12.15;5.85;;;;;;;;;;5082242;28;20047;-60
2021/11/13 06:26:41;;;;;;;14.30;6.22;;;;;;;;;;5069922;28;20064;-59
2021/11/13 06:29:08;;;;;;;11.85;6.00;;;;;;;;;;5064217;28;20513;-59
2021/11/13 06:31:35;;;;;;;13.02;5.90;;;;;;;;;;5060283;28;20080;-59
2021/11/13 06:34:01;;;;;;;12.52;6.28;;;;;;;;;;5074468;28;20065;-59
2021/11/13 06:36:28;;;;;;;13.25;6.85;;;;;;;;;;5078431;28;20130;-59
2021/11/13 06:38:56;;;;;;;12.55;6.30;;;;;;;;;;5083011;28;20416;-59
2021/11/13 06:41:26;;;;;;;13.80;6.30;;;;;;;;;;5077042;28;20061;-59
2021/11/13 06:43:53;;;;;;;11.30;5.90;;;;;;;;;;5063810;28;20462;-59
2021/11/13 06:46:19;;;;;;;13.82;6.75;;;;;;;;;;5058136;28;20470;-60
2021/11/13 06:48:46;;;;;;;12.90;6.20;;;;;;;;;;5063243;28;20053;-60
2021/11/13 06:51:12;;;;;;;12.35;6.32;;;;;;;;;;5061517;28;20088;-59
2021/11/13 06:53:39;;;;;;;14.48;6.53;;;;;;;;;;5059100;28;20041;-59
2021/11/13 06:56:09;;;;;;;16.95;6.20;;;;;;;;;;5062823;28;20041;-59
2021/11/13 06:58:36;;;;;;;12.82;6.13;;;;;;;;;;5057647;28;20130;-59
2021/11/13 07:01:06;;;;;;;11.52;5.95;;;;;;;;;;5064663;28;20033;-59
2021/11/13 07:03:33;;;;;;;11.90;5.93;;;;;;;;;;5061149;28;20051;-60
2021/11/13 07:05:59;;;;;;;13.70;6.10;;;;;;;;;;5064692;28;20086;-58
2021/11/13 07:08:26;;;;;;;12.20;5.90;;;;;;;;;;5058682;28;20041;-59
2021/11/13 07:10:53;;;;;;;12.55;6.38;;;;;;;;;;5061917;28;20037;-59
2021/11/13 07:13:21;;;;;;;12.25;6.25;;;;;;;;;;5056387;28;20032;-59
2021/11/13 07:15:48;;;;;;;14.30;6.53;;;;;;;;;;5040742;28;20041;-59
2021/11/13 07:18:14;;;;;;;12.38;6.13;;;;;;;;;;5037894;28;20267;-59
2021/11/13 07:20:41;;;;;;;11.30;5.90;;;;;;;;;;5040393;28;20494;-59
2021/11/13 07:23:08;;;;;;;14.27;6.53;;;;;;;;;;5038967;28;20203;-58
2021/11/13 07:25:35;;;;;;;13.65;6.80;;;;;;;;;;5041864;28;20045;-59
2021/11/13 07:28:04;;;;;;;15.85;8.60;;;;;;;;;;5048044;28;20033;-59
2021/11/13 07:30:39;;;;;;;15.65;7.75;;;;;;;;;;5041604;28;20060;-60
2021/11/13 07:33:06;;;;;;;14.25;6.88;;;;;;;;;;5055371;28;20723;-59
2021/11/13 07:35:32;;;;;;;12.57;6.47;;;;;;;;;;5048018;28;20053;-59
2021/11/13 07:37:59;;;;;;;13.90;6.70;;;;;;;;;;5056028;28;20063;-59
2021/11/13 07:40:26;;;;;;;14.95;5.93;;;;;;;;;;5051752;28;20045;-59
2021/11/13 07:42:53;;;;;;;15.02;6.35;;;;;;;;;;5048028;28;20387;-60
2021/11/13 07:45:19;;;;;;;12.18;6.28;;;;;;;;;;5045458;28;20049;-59
2021/11/13 07:47:47;;;;;;;12.73;6.57;;;;;;;;;;5050671;28;20057;-59
2021/11/13 07:50:15;;;;;;;13.32;6.80;;;;;;;;;;5047413;28;20061;-60
2021/11/13 07:52:43;;;;;;;13.23;6.10;;;;;;;;;;5054026;28;20056;-59
2021/11/13 07:55:09;;;;;;;14.75;6.90;;;;;;;;;;5043458;28;20046;-60
2021/11/13 07:57:37;;;;;;;13.75;6.82;;;;;;;;;;5047694;28;20052;-59
2021/11/13 08:00:07;;;;;;;11.90;6.47;;;;;;;;;;5049789;28;20486;-59
2021/11/13 08:02:33;;;;;;;14.18;7.18;;;;;;;;;;5052809;28;20052;-59
2021/11/13 08:05:01;;;;;;;12.88;6.85;;;;;;;;;;5043078;28;20048;-59
2021/11/13 08:07:28;;;;;;;12.73;6.70;;;;;;;;;;5048809;28;20088;-59
2021/11/13 08:09:54;;;;;;;12.70;6.38;;;;;;;;;;5046408;28;20195;-59
2021/11/13 08:12:21;;;;;;;12.77;6.22;;;;;;;;;;5050246;28;20048;-58
2021/11/13 08:14:48;;;;;;;13.43;7.05;;;;;;;;;;5044850;28;20041;-59
2021/11/13 08:17:14;;;;;;;16.52;8.32;;;;;;;;;;5057621;28;20491;-59
2021/11/13 08:19:41;;;;;;;17.77;8.07;;;;;;;;;;5052324;28;20033;-59
2021/11/13 08:22:09;;;;;;;15.13;7.78;;;;;;;;;;5049410;28;20029;-60
2021/11/13 08:24:36;;;;;;;14.38;6.78;;;;;;;;;;5050385;28;20061;-60
2021/11/13 08:27:03;;;;;;;11.70;6.05;;;;;;;;;;5047970;28;20162;-59
2021/11/13 08:29:29;;;;;;;15.73;7.10;;;;;;;;;;5046356;28;20041;-59
2021/11/13 08:32:04;;;;;;;18.15;6.90;;;;;;;;;;5051462;28;20048;-59
2021/11/13 08:34:31;;;;;;;13.10;6.72;;;;;;;;;;5044633;28;20045;-59
2021/11/13 08:36:57;;;;;;;14.25;7.18;;;;;;;;;;5050022;28;20048;-59
2021/11/13 08:39:25;;;;;;;14.38;6.57;;;;;;;;;;5060295;28;20075;-59
2021/11/13 08:41:52;;;;;;;14.77;7.13;;;;;;;;;;5048608;28;20107;-59
2021/11/13 08:44:18;;;;;;;14.15;7.20;;;;;;;;;;5040405;28;20282;-59
2021/11/13 08:46:46;;;;;;;12.85;7.18;;;;;;;;;;5037887;28;20045;-59
2021/11/13 08:49:13;;;;;;;19.63;6.83;;;;;;;;;;5041865;28;20041;-59
2021/11/13 08:51:39;;;;;;;14.68;7.30;;;;;;;;;;5041075;28;20041;-59
2021/11/13 08:54:06;;;;;;;15.02;8.18;;;;;;;;;;5060080;28;20049;-60
2021/11/13 08:56:34;;;;;;;15.15;7.50;;;;;;;;;;5056852;28;20076;-60
2021/11/13 08:59:01;;;;;;;15.17;7.83;;;;;;;;;;5060202;28;20047;-60
2021/11/13 09:01:29;;;;;;;13.00;7.20;;;;;;;;;;5058710;28;20632;-59
2021/11/13 09:03:56;;;;;;;16.48;8.00;;;;;;;;;;5039279;28;20037;-59
2021/11/13 09:06:24;;;;;;;14.07;6.90;;;;;;;;;;5044238;28;20480;-60
2021/11/13 09:08:52;;;;;;;13.07;6.72;;;;;;;;;;5055647;28;20439;-59
2021/11/13 09:11:21;;;;;;;13.67;7.03;;;;;;;;;;5061820;28;20065;-59
2021/11/13 09:13:50;;;;;;;13.55;7.22;;;;;;;;;;5055314;28;20574;-59
2021/11/13 09:16:17;;;;;;;19.80;8.40;;;;;;;;;;5063195;28;20068;-59
2021/11/13 09:18:44;;;;;;;18.65;8.95;;;;;;;;;;5060784;28;20050;-59
2021/11/13 09:21:11;;;;;;;23.20;8.60;;;;;;;;;;5058843;28;20068;-59
2021/11/13 09:23:38;;;;;;;18.60;8.65;;;;;;;;;;5061051;28;20037;-59
2021/11/13 09:26:06;;;;;;;15.68;7.63;;;;;;;;;;5064571;28;20045;-60
2021/11/13 09:28:33;;;;;;;15.32;7.80;;;;;;;;;;5060153;28;20037;-60
2021/11/13 09:31:01;;;;;;;15.60;7.75;;;;;;;;;;5063932;28;20122;-59
2021/11/13 09:33:28;;;;;;;18.83;7.65;;;;;;;;;;5056248;28;20041;-60
2021/11/13 09:35:55;;;;;;;20.27;6.93;;;;;;;;;;5076934;28;20069;-60
2021/11/13 09:38:24;;;;;;;14.93;7.82;;;;;;;;;;5055353;28;20057;-59
2021/11/13 09:40:52;;;;;;;15.95;7.30;;;;;;;;;;5042914;28;20502;-60
2021/11/13 09:43:20;;;;;;;16.58;6.90;;;;;;;;;;5040162;28;20053;-60
2021/11/13 09:45:46;;;;;;;13.75;7.28;;;;;;;;;;5062408;28;20130;-60
2021/11/13 09:48:15;;;;;;;18.10;7.15;;;;;;;;;;5063821;28;20045;-60
2021/11/13 09:50:45;;;;;;;15.20;6.60;;;;;;;;;;5057365;28;20072;-59
2021/11/13 09:53:12;;;;;;;15.20;7.28;;;;;;;;;;5044393;28;20029;-60
2021/11/13 09:55:38;;;;;;;18.88;7.25;;;;;;;;;;5058763;28;20041;-59
2021/11/13 09:58:07;;;;;;;14.02;7.07;;;;;;;;;;5064764;28;20061;-59
2021/11/13 10:00:37;;;;;;;16.45;7.35;;;;;;;;;;5061965;28;20039;-60
2021/11/13 10:03:04;;;;;;;15.90;6.78;;;;;;;;;;5064196;28;20047;-60
2021/11/13 10:05:32;;;;;;;15.18;7.30;;;;;;;;;;5047530;28;20051;-60
2021/11/13 10:08:00;;;;;;;18.02;7.53;;;;;;;;;;5043252;28;20582;-60
2021/11/13 10:10:29;;;;;;;14.85;7.45;;;;;;;;;;5048619;28;20121;-59
2021/11/13 10:12:56;;;;;;;13.32;6.82;;;;;;;;;;5049720;28;20029;-60
2021/11/13 10:15:31;;;;;;;16.63;7.28;;;;;;;;;;5037856;28;20037;-59
2021/11/13 10:18:12;;;;;;;16.88;6.60;;;;;;;;;;5042975;28;20041;-60
2021/11/13 10:20:41;;;;;;;23.73;9.48;;;;;;;;;;5038918;28;20049;-60
2021/11/13 10:23:08;;;;;;;18.60;9.15;;;;;;;;;;5042549;28;20522;-60
2021/11/13 10:25:35;;;;;;;20.02;8.82;;;;;;;;;;5044896;28;20040;-59
2021/11/13 10:28:12;;;;;;;18.25;7.90;;;;;;;;;;5063081;28;20060;-60
2021/11/13 10:30:39;;;;;;;16.98;6.47;;;;;;;;;;5052482;28;20033;-60
2021/11/13 10:33:06;;;;;;;15.50;6.22;;;;;;;;;;5047511;28;20388;-59
2021/11/13 10:35:43;;;;;;;13.65;5.80;;;;;;;;;;5048070;28;20041;-59
2021/11/13 10:38:14;;;;;;;14.32;6.60;;;;;;;;;;5061766;28;20041;-59
2021/11/13 10:40:48;;;;;;;14.82;6.20;;;;;;;;;;5057301;28;20085;-60
2021/11/13 10:43:14;;;;;;;15.63;6.35;;;;;;;;;;5063228;28;20081;-59
2021/11/13 10:45:41;;;;;;;13.40;6.63;;;;;;;;;;5057927;28;20118;-59
2021/11/13 10:48:19;;;;;;;14.65;6.28;;;;;;;;;;5042938;28;20044;-59
2021/11/13 10:50:47;;;;;;;12.77;6.22;;;;;;;;;;5040842;28;20552;-59
2021/11/13 10:53:14;;;;;;;12.45;5.95;;;;;;;;;;5055725;28;20033;-59
2021/11/13 10:55:41;;;;;;;10.70;5.80;;;;;;;;;;5041710;28;20037;-59
2021/11/13 10:58:26;;;;;;;15.13;6.13;;;;;;;;;;5038986;28;20468;-60
2021/11/13 11:00:53;;;;;;;12.98;6.07;;;;;;;;;;5040987;28;20475;-59
2021/11/13 11:03:20;;;;;;;14.40;6.03;;;;;;;;;;5038387;28;20123;-59
2021/11/13 11:05:49;;;;;;;13.27;6.45;;;;;;;;;;5042413;28;20033;-60
2021/11/13 11:08:25;;;;;;;12.52;6.38;;;;;;;;;;5039435;28;20534;-60
2021/11/13 11:10:58;;;;;;;17.80;6.55;;;;;;;;;;5042523;28;20191;-59
2021/11/13 11:13:42;;;;;;;14.13;6.07;;;;;;;;;;5053231;28;20056;-60
2021/11/13 11:16:21;;;;;;;14.32;6.72;;;;;;;;;;5061054;28;20052;-60
2021/11/13 11:18:58;;;;;;;12.48;5.75;;;;;;;;;;5051032;28;20312;-60
2021/11/13 11:21:41;;;;;;;15.73;6.40;;;;;;;;;;5042471;28;20033;-59
2021/11/13 11:24:08;;;;;;;15.88;5.80;;;;;;;;;;5037480;28;20064;-59
2021/11/13 11:26:34;;;;;;;14.57;5.68;;;;;;;;;;5043206;28;20025;-61
2021/11/13 11:29:01;;;;;;;13.98;5.47;;;;;;;;;;5053254;28;20408;-60
2021/11/13 11:31:38;;;;;;;13.73;5.55;;;;;;;;;;5062028;28;20045;-60
2021/11/13 11:34:04;;;;;;;11.60;5.18;;;;;;;;;;5058915;28;20045;-60
2021/11/13 11:36:31;;;;;;;14.02;5.65;;;;;;;;;;5043820;28;20048;-60
2021/11/13 11:39:01;;;;;;;11.60;5.35;;;;;;;;;;5037216;28;20049;-60
2021/11/13 11:41:33;;;;;;;11.30;5.00;;;;;;;;;;5042488;28;20033;-60
2021/11/13 11:44:00;;;;;;;11.55;5.32;;;;;;;;;;5046342;28;20041;-59
2021/11/13 11:46:28;;;;;;;15.40;5.45;;;;;;;;;;5041500;28;20401;-60
2021/11/13 11:48:55;;;;;;;13.82;5.13;;;;;;;;;;5040430;28;20049;-60
2021/11/13 11:51:22;;;;;;;15.23;5.43;;;;;;;;;;5040381;28;20045;-60
2021/11/13 11:53:49;;;;;;;14.60;5.47;;;;;;;;;;5041192;28;20110;-60
2021/11/13 11:56:17;;;;;;;11.40;5.63;;;;;;;;;;5061096;28;20044;-60
2021/11/13 11:58:44;;;;;;;12.63;5.93;;;;;;;;;;5057761;28;20092;-60
2021/11/13 12:01:23;;;;;;;13.82;5.95;;;;;;;;;;5058604;28;20381;-59
2021/11/13 12:03:50;;;;;;;12.43;5.50;;;;;;;;;;5038918;28;20033;-59
2021/11/13 12:06:16;;;;;;;11.68;6.40;;;;;;;;;;5041161;28;20066;-59
2021/11/13 12:08:44;;;;;;;15.25;5.47;;;;;;;;;;5041820;28;20039;-59
2021/11/13 12:11:26;;;;;;;14.73;5.23;;;;;;;;;;5056767;28;20052;-60
2021/11/13 12:13:52;;;;;;;12.85;4.63;;;;;;;;;;5040811;28;20091;-59
2021/11/13 12:16:22;;;;;;;12.55;5.15;;;;;;;;;;5045907;28;20040;-60
2021/11/13 12:18:49;;;;;;;16.30;5.32;;;;;;;;;;5060240;28;20045;-60
2021/11/13 12:21:16;;;;;;;12.25;4.82;;;;;;;;;;5057195;28;20139;-60
2021/11/13 12:23:44;;;;;;;11.23;5.10;;;;;;;;;;5061339;28;20052;-60
2021/11/13 12:26:11;;;;;;;8.25;4.22;;;;;;;;;;5058886;28;20040;-61
2021/11/13 12:28:50;;;;;;;10.98;4.90;;;;;;;;;;5060966;28;20040;-60
2021/11/13 12:31:18;;;;;;;11.75;5.40;;;;;;;;;;5043742;28;20052;-60
2021/11/13 12:33:56;;;;;;;13.93;4.72;;;;;;;;;;5040409;28;20040;-60
2021/11/13 12:36:24;;;;;;;11.23;4.35;;;;;;;;;;5049504;28;20037;-60
2021/11/13 12:38:59;;;;;;;11.10;4.28;;;;;;;;;;5062357;28;20056;-60
2021/11/13 12:41:27;;;;;;;14.07;5.28;;;;;;;;;;5044295;28;20100;-60
2021/11/13 12:44:15;;;;;;;12.95;4.43;;;;;;;;;;5040721;28;20038;-60
2021/11/13 12:46:43;;;;;;;9.27;4.55;;;;;;;;;;5048398;28;20126;-60
2021/11/13 12:49:30;;;;;;;13.27;6.10;;;;;;;;;;5060288;28;20044;-60
2021/11/13 12:52:13;;;;;;;14.63;6.18;;;;;;;;;;5042315;28;20103;-60
2021/11/13 12:54:41;;;;;;;18.13;6.55;;;;;;;;;;5040459;28;20049;-61
2021/11/13 12:57:09;;;;;;;15.73;5.97;;;;;;;;;;5054410;28;20040;-60
2021/11/13 12:59:39;;;;;;;13.80;6.32;;;;;;;;;;5057629;28;20085;-61
2021/11/13 13:02:08;;;;;;;13.68;6.20;;;;;;;;;;5038024;28;20044;-60
2021/11/13 13:04:34;;;;;;;;;;;;;;;;;;5041765;28;20064;-60
2021/11/13 13:07:02;;;;;;;13.25;5.50;;;;;;;;;;5037625;28;19929;-59
2021/11/13 13:09:29;;;;;;;14.68;5.30;;;;;;;;;;5040331;28;20041;-60
2021/11/13 13:11:57;;;;;;;12.60;5.68;;;;;;;;;;5041567;28;20051;-59
2021/11/13 13:14:27;;;;;;;15.05;6.20;;;;;;;;;;5060625;28;20044;-60
2021/11/13 13:16:55;;;;;;;16.35;6.35;;;;;;;;;;5057064;28;20040;-59
2021/11/13 13:19:26;;;;;;;13.73;6.32;;;;;;;;;;5065716;28;20044;-60
2021/11/13 13:21:53;;;;;;;14.70;6.00;;;;;;;;;;5054183;28;20033;-59
2021/11/13 13:24:21;;;;;;;13.57;6.13;;;;;;;;;;5056429;28;20053;-59
2021/11/13 13:26:48;;;;;;;17.15;6.60;;;;;;;;;;5050838;28;20037;-60
2021/11/13 13:29:15;;;;;;;18.13;6.50;;;;;;;;;;5057559;28;20041;-59
2021/11/13 13:31:55;;;;;;;15.23;7.32;;;;;;;;;;5068054;28;20029;-60
2021/11/13 13:34:22;;;;;;;14.70;5.80;;;;;;;;;;5055102;28;20061;-59
2021/11/13 13:36:52;;;;;;;11.30;5.03;;;;;;;;;;5041786;28;20041;-60
2021/11/13 13:39:19;;;;;;;12.88;4.88;;;;;;;;;;5036515;28;20172;-59
2021/11/13 13:41:49;;;;;;;10.68;5.28;;;;;;;;;;5040196;28;20029;-60
2021/11/13 13:44:18;;;;;;;12.90;4.88;;;;;;;;;;5051508;28;20033;-60
2021/11/13 13:46:44;;;;;;;12.05;5.13;;;;;;;;;;5057927;28;20044;-59
2021/11/13 13:49:14;;;;;;;10.30;5.05;;;;;;;;;;5042951;28;20107;-60
2021/11/13 13:51:42;;;;;;;11.65;5.20;;;;;;;;;;5059685;28;20053;-60
2021/11/13 13:54:12;;;;;;;12.00;4.97;;;;;;;;;;5060355;28;20040;-60
2021/11/13 13:56:41;;;;;;;12.18;4.38;;;;;;;;;;5064582;28;20080;-59
2021/11/13 13:59:07;;;;;;;;;;;;;;;;;;5060134;28;20069;-59
2021/11/13 14:01:36;;;;;;;9.73;4.18;;;;;;;;;;5054688;28;19943;-59
2021/11/13 14:04:06;;;;;;;10.90;5.05;;;;;;;;;;5052477;28;20051;-59
2021/11/13 14:06:34;;;;;;;10.00;4.75;;;;;;;;;;5042574;28;20041;-59
2021/11/13 14:09:00;;;;;;;8.97;4.43;;;;;;;;;;5052976;28;20134;-60
2021/11/13 14:11:28;;;;;;;10.85;4.70;;;;;;;;;;5041079;28;20053;-60
2021/11/13 14:13:55;;;;;;;11.20;4.75;;;;;;;;;;5039587;28;20045;-59
2021/11/13 14:16:22;;;;;;;9.90;4.80;;;;;;;;;;5041419;28;20096;-59
2021/11/13 14:18:50;;;;;;;10.02;4.93;;;;;;;;;;5041029;28;20131;-59
2021/11/13 14:21:22;;;;;;;10.60;4.70;;;;;;;;;;5041290;28;20058;-60
2021/11/13 14:23:50;;;;;;;10.10;4.53;;;;;;;;;;5043591;28;20049;-60
2021/11/13 14:26:19;;;;;;;9.93;4.73;;;;;;;;;;5042801;28;20118;-60
2021/11/13 14:28:46;;;;;;;12.52;4.32;;;;;;;;;;5044093;28;20037;-59
2021/11/13 14:31:16;;;;;;;10.63;5.03;;;;;;;;;;5042470;28;20057;-60
2021/11/13 14:33:47;;;;;;;11.00;4.65;;;;;;;;;;5042009;28;20297;-60
2021/11/13 14:36:17;;;;;;;10.40;5.28;;;;;;;;;;5038653;28;20030;-60
2021/11/13 14:38:54;;;;;;;13.73;5.15;;;;;;;;;;5041724;28;20111;-59